createdAt,value
2018-06-18T00:00:55.491Z,76.84
2018-06-18T00:02:00.850Z,76.75
2018-06-18T00:03:06.859Z,76.94
2018-06-18T00:04:13.192Z,77.42
2018-06-18T00:05:17.931Z,76.96
2018-06-18T00:06:22.580Z,77.09
2018-06-18T00:07:27.246Z,77.02
2018-06-18T00:08:31.920Z,76.85
2018-06-18T00:09:37.064Z,76.95
2018-06-18T00:10:42.513Z,76.82
2018-06-18T00:11:47.169Z,76.58
2018-06-18T00:12:52.765Z,76.66
2018-06-18T00:13:57.437Z,76.60
2018-06-18T00:15:02.663Z,77.11
2018-06-18T00:16:07.409Z,76.82
2018-06-18T00:17:12.092Z,77.44
2018-06-18T00:18:16.809Z,77.68
2018-06-18T00:19:21.502Z,77.38
2018-06-18T00:20:27.255Z,77.53
2018-06-18T00:21:35.108Z,77.43
2018-06-18T00:22:39.801Z,77.54
2018-06-18T00:23:45.021Z,77.65
2018-06-18T00:24:50.167Z,77.42
2018-06-18T00:25:55.394Z,77.44
2018-06-18T00:27:02.093Z,77.86
2018-06-18T00:28:07.241Z,77.47
2018-06-18T00:29:17.506Z,77.92
2018-06-18T00:30:22.171Z,77.97
2018-06-18T00:31:26.991Z,78.21
2018-06-18T00:32:31.713Z,78.25
2018-06-18T00:33:37.479Z,77.96
2018-06-18T00:34:43.167Z,78.00
2018-06-18T00:35:47.878Z,78.20
2018-06-18T00:36:52.597Z,77.66
2018-06-18T00:37:57.258Z,78.23
2018-06-18T00:39:01.977Z,77.71
2018-06-18T00:40:06.707Z,77.59
2018-06-18T00:41:12.798Z,77.98
2018-06-18T00:42:17.478Z,78.15
2018-06-18T00:43:23.382Z,77.99
2018-06-18T00:44:28.112Z,78.11
2018-06-18T00:45:33.216Z,77.94
2018-06-18T00:46:37.790Z,77.85
2018-06-18T00:47:42.896Z,77.90
2018-06-18T00:48:47.474Z,78.05
2018-06-18T00:49:52.047Z,78.10
2018-06-18T00:50:56.632Z,78.18
2018-06-18T00:52:01.325Z,77.48
2018-06-18T00:53:05.882Z,77.92
2018-06-18T00:54:11.007Z,77.76
2018-06-18T00:55:20.803Z,77.53
2018-06-18T00:56:25.520Z,78.25
2018-06-18T00:57:30.212Z,77.81
2018-06-18T00:58:34.935Z,77.77
2018-06-18T00:59:39.605Z,78.22
2018-06-18T01:00:44.699Z,77.84
2018-06-18T01:01:49.382Z,77.92
2018-06-18T01:02:55.381Z,77.81
2018-06-18T01:04:00.729Z,77.99
2018-06-18T01:05:05.486Z,78.15
2018-06-18T01:06:11.008Z,78.61
2018-06-18T01:07:16.099Z,78.04
2018-06-18T01:08:20.846Z,78.37
2018-06-18T01:09:25.508Z,78.26
2018-06-18T01:10:30.228Z,78.25
2018-06-18T01:11:34.971Z,78.34
2018-06-18T01:12:40.748Z,78.75
2018-06-18T01:13:45.782Z,78.34
2018-06-18T01:14:50.453Z,78.73
2018-06-18T01:15:55.818Z,78.35
2018-06-18T01:17:00.493Z,78.51
2018-06-18T01:18:05.187Z,78.86
2018-06-18T01:19:09.971Z,78.55
2018-06-18T01:20:14.963Z,78.41
2018-06-18T01:21:21.209Z,78.80
2018-06-18T01:22:25.941Z,78.77
2018-06-18T01:23:38.346Z,78.42
2018-06-18T01:24:44.681Z,78.22
2018-06-18T01:25:49.795Z,78.06
2018-06-18T01:26:54.487Z,78.06
2018-06-18T01:27:59.177Z,78.44
2018-06-18T01:29:03.886Z,78.38
2018-06-18T01:30:09.115Z,78.62
2018-06-18T01:31:13.845Z,78.44
2018-06-18T01:32:18.838Z,78.45
2018-06-18T01:33:24.059Z,78.78
2018-06-18T01:34:29.649Z,78.58
2018-06-18T01:35:34.353Z,78.71
2018-06-18T01:36:38.987Z,79.01
2018-06-18T01:37:44.534Z,78.90
2018-06-18T01:38:50.551Z,78.92
2018-06-18T01:39:56.226Z,79.01
2018-06-18T01:41:01.681Z,78.58
2018-06-18T01:42:06.326Z,78.61
2018-06-18T01:43:12.336Z,78.72
2018-06-18T01:44:16.951Z,78.93
2018-06-18T01:45:22.007Z,79.23
2018-06-18T01:46:26.588Z,79.15
2018-06-18T01:47:31.181Z,78.69
2018-06-18T01:48:35.807Z,78.96
2018-06-18T01:49:40.400Z,78.97
2018-06-18T01:50:44.993Z,79.20
2018-06-18T01:51:51.271Z,78.93
2018-06-18T01:52:55.897Z,78.93
2018-06-18T01:54:00.534Z,79.25
2018-06-18T01:55:05.179Z,78.98
2018-06-18T01:56:09.811Z,79.30
2018-06-18T01:57:14.403Z,78.83
2018-06-18T01:58:19.984Z,79.32
2018-06-18T01:59:24.589Z,79.05
2018-06-18T02:00:29.704Z,79.15
2018-06-18T02:01:35.275Z,78.70
2018-06-18T02:02:40.623Z,79.01
2018-06-18T02:03:45.212Z,78.83
2018-06-18T02:04:50.110Z,79.04
2018-06-18T02:05:55.761Z,79.21
2018-06-18T02:07:00.432Z,79.29
2018-06-18T02:08:05.046Z,79.03
2018-06-18T02:09:11.426Z,79.18
2018-06-18T02:10:16.066Z,79.23
2018-06-18T02:11:20.679Z,79.46
2018-06-18T02:12:25.353Z,79.46
2018-06-18T02:13:29.964Z,79.29
2018-06-18T02:14:34.559Z,79.10
2018-06-18T02:15:39.169Z,79.40
2018-06-18T02:16:44.265Z,79.28
2018-06-18T02:17:48.884Z,78.80
2018-06-18T02:18:53.478Z,79.42
2018-06-18T02:19:59.030Z,79.44
2018-06-18T02:21:04.658Z,79.30
2018-06-18T02:22:09.240Z,79.20
2018-06-18T02:23:13.832Z,79.11
2018-06-18T02:24:18.401Z,79.61
2018-06-18T02:25:23.045Z,79.75
2018-06-18T02:26:27.643Z,79.79
2018-06-18T02:27:37.733Z,79.52
2018-06-18T02:28:47.336Z,79.61
2018-06-18T02:29:56.974Z,79.51
2018-06-18T02:31:06.512Z,79.78
2018-06-18T02:32:16.051Z,79.61
2018-06-18T02:33:25.869Z,79.97
2018-06-18T02:34:35.424Z,79.94
2018-06-18T02:35:45.194Z,79.82
2018-06-18T02:36:54.964Z,79.98
2018-06-18T02:38:04.425Z,80.20
2018-06-18T02:39:14.721Z,79.79
2018-06-18T02:40:24.187Z,80.23
2018-06-18T02:41:28.728Z,80.06
2018-06-18T02:42:33.228Z,80.08
2018-06-18T02:43:37.755Z,80.28
2018-06-18T02:44:42.278Z,79.98
2018-06-18T02:45:47.426Z,80.29
2018-06-18T02:46:52.052Z,80.11
2018-06-18T02:47:56.698Z,80.43
2018-06-18T02:49:01.317Z,80.46
2018-06-18T02:50:05.891Z,80.04
2018-06-18T02:51:10.549Z,80.02
2018-06-18T02:52:15.693Z,80.02
2018-06-18T02:53:20.333Z,79.90
2018-06-18T02:54:24.944Z,80.00
2018-06-18T02:55:30.300Z,80.13
2018-06-18T02:56:38.981Z,80.05
2018-06-18T02:57:44.152Z,80.10
2018-06-18T02:58:49.232Z,80.26
2018-06-18T02:59:53.808Z,80.22
2018-06-18T03:00:58.434Z,80.05
2018-06-18T03:02:04.222Z,80.60
2018-06-18T03:03:11.825Z,80.32
2018-06-18T03:04:16.396Z,80.25
2018-06-18T03:05:21.233Z,80.39
2018-06-18T03:06:25.853Z,80.64
2018-06-18T03:07:30.484Z,80.55
2018-06-18T03:08:35.094Z,80.77
2018-06-18T03:09:39.721Z,80.19
2018-06-18T03:10:44.351Z,80.87
2018-06-18T03:11:49.318Z,80.74
2018-06-18T03:12:53.881Z,80.84
2018-06-18T03:13:58.412Z,80.64
2018-06-18T03:15:03.015Z,81.00
2018-06-18T03:16:07.670Z,80.69
2018-06-18T03:17:12.203Z,81.02
2018-06-18T03:18:22.134Z,80.80
2018-06-18T03:19:31.709Z,80.74
2018-06-18T03:20:41.214Z,80.64
2018-06-18T03:21:50.746Z,80.76
2018-06-18T03:23:00.205Z,80.42
2018-06-18T03:24:10.925Z,80.20
2018-06-18T03:25:20.309Z,80.96
2018-06-18T03:26:29.856Z,80.69
2018-06-18T03:27:40.344Z,80.58
2018-06-18T03:28:50.719Z,80.07
2018-06-18T03:29:55.399Z,80.59
2018-06-18T03:31:00.329Z,80.49
2018-06-18T03:32:07.351Z,79.99
2018-06-18T03:33:12.054Z,80.29
2018-06-18T03:34:16.656Z,80.25
2018-06-18T03:35:21.316Z,80.38
2018-06-18T03:36:25.965Z,80.01
2018-06-18T03:37:31.047Z,80.48
2018-06-18T03:38:35.740Z,80.40
2018-06-18T03:39:40.965Z,80.60
2018-06-18T03:40:45.640Z,80.16
2018-06-18T03:41:51.049Z,80.59
2018-06-18T03:42:55.772Z,80.65
2018-06-18T03:44:03.772Z,80.49
2018-06-18T03:45:10.554Z,80.27
2018-06-18T03:46:15.359Z,80.00
2018-06-18T03:47:25.142Z,80.68
2018-06-18T03:48:29.796Z,80.09
2018-06-18T03:49:34.472Z,80.13
2018-06-18T03:50:39.966Z,80.75
2018-06-18T03:51:44.591Z,80.46
2018-06-18T03:52:49.243Z,80.55
2018-06-18T03:53:53.795Z,80.48
2018-06-18T03:54:59.443Z,80.06
2018-06-18T03:56:03.944Z,80.10
2018-06-18T03:57:09.580Z,80.67
2018-06-18T03:58:14.092Z,80.74
2018-06-18T03:59:19.975Z,80.76
2018-06-18T04:00:25.001Z,80.76
2018-06-18T04:01:42.804Z,80.40
2018-06-18T04:02:57.443Z,80.50
2018-06-18T04:04:08.062Z,80.84
2018-06-18T04:05:18.612Z,80.70
2018-06-18T04:06:28.112Z,80.80
2018-06-18T04:07:38.944Z,80.67
2018-06-18T04:08:43.595Z,80.28
2018-06-18T04:09:54.043Z,80.02
2018-06-18T04:11:03.522Z,80.06
2018-06-18T04:12:11.423Z,79.91
2018-06-18T04:13:16.938Z,79.87
2018-06-18T04:14:21.455Z,80.37
2018-06-18T04:15:25.972Z,79.96
2018-06-18T04:16:30.792Z,80.19
2018-06-18T04:17:36.364Z,80.35
2018-06-18T04:18:45.243Z,80.47
2018-06-18T04:19:49.808Z,80.05
2018-06-18T04:20:54.318Z,80.47
2018-06-18T04:21:58.805Z,80.41
2018-06-18T04:23:03.646Z,80.80
2018-06-18T04:24:08.182Z,80.30
2018-06-18T04:25:12.744Z,80.16
2018-06-18T04:26:17.276Z,80.21
2018-06-18T04:27:22.259Z,80.73
2018-06-18T04:28:27.164Z,80.20
2018-06-18T04:29:31.974Z,80.43
2018-06-18T04:30:36.472Z,80.58
2018-06-18T04:31:41.018Z,80.45
2018-06-18T04:32:45.599Z,80.18
2018-06-18T04:33:55.474Z,80.23
2018-06-18T04:35:00.924Z,80.32
2018-06-18T04:36:06.309Z,80.17
2018-06-18T04:37:10.870Z,79.85
2018-06-18T04:38:15.419Z,80.02
2018-06-18T04:39:21.455Z,80.19
2018-06-18T04:40:27.125Z,80.11
2018-06-18T04:41:31.643Z,80.07
2018-06-18T04:42:42.757Z,79.75
2018-06-18T04:43:52.253Z,79.32
2018-06-18T04:45:01.879Z,79.74
2018-06-18T04:46:11.435Z,79.69
2018-06-18T04:47:21.019Z,79.45
2018-06-18T04:48:30.627Z,79.28
2018-06-18T04:49:40.315Z,79.41
2018-06-18T04:50:49.895Z,79.18
2018-06-18T04:51:54.479Z,78.99
2018-06-18T04:52:59.049Z,78.79
2018-06-18T04:54:03.616Z,79.33
2018-06-18T04:55:08.542Z,79.03
2018-06-18T04:56:13.139Z,79.12
2018-06-18T04:57:17.704Z,79.12
2018-06-18T04:58:22.216Z,79.49
2018-06-18T04:59:26.839Z,79.51
2018-06-18T05:00:53.434Z,79.31
2018-06-18T05:01:58.142Z,79.14
2018-06-18T05:03:02.674Z,79.57
2018-06-18T05:04:07.191Z,78.90
2018-06-18T05:05:11.771Z,78.89
2018-06-18T05:06:16.310Z,79.05
2018-06-18T05:07:21.903Z,79.23
2018-06-18T05:08:31.661Z,79.48
2018-06-18T05:09:40.232Z,79.39
2018-06-18T05:10:46.125Z,79.32
2018-06-18T05:11:51.461Z,78.87
2018-06-18T05:12:57.104Z,79.12
2018-06-18T05:14:03.251Z,79.66
2018-06-18T05:15:07.852Z,79.12
2018-06-18T05:16:12.360Z,79.23
2018-06-18T05:17:18.760Z,79.66
2018-06-18T05:18:23.308Z,79.29
2018-06-18T05:19:27.988Z,79.49
2018-06-18T05:20:32.833Z,79.42
2018-06-18T05:21:37.480Z,79.84
2018-06-18T05:22:42.064Z,79.98
2018-06-18T05:23:46.642Z,79.51
2018-06-18T05:24:52.787Z,79.25
2018-06-18T05:25:59.549Z,79.73
2018-06-18T05:27:04.198Z,79.85
2018-06-18T05:28:08.703Z,80.00
2018-06-18T05:29:14.429Z,79.52
2018-06-18T05:30:21.319Z,79.31
2018-06-18T05:31:28.692Z,79.60
2018-06-18T05:32:33.188Z,79.20
2018-06-18T05:33:38.403Z,79.05
2018-06-18T05:34:42.894Z,78.56
2018-06-18T05:35:48.088Z,78.50
2018-06-18T05:36:53.335Z,78.30
2018-06-18T05:38:00.532Z,78.34
2018-06-18T05:39:07.522Z,78.40
2018-06-18T05:40:15.138Z,78.37
2018-06-18T05:41:20.688Z,78.48
2018-06-18T05:42:27.494Z,78.52
2018-06-18T05:43:33.666Z,78.49
2018-06-18T05:44:40.404Z,78.24
2018-06-18T05:45:45.030Z,78.28
2018-06-18T05:46:49.710Z,77.75
2018-06-18T05:47:54.386Z,77.99
2018-06-18T05:49:00.504Z,77.68
2018-06-18T05:50:05.220Z,77.46
2018-06-18T05:51:11.335Z,77.53
2018-06-18T05:52:15.830Z,77.57
2018-06-18T05:53:30.268Z,77.33
2018-06-18T05:54:34.833Z,77.66
2018-06-18T05:55:39.340Z,77.46
2018-06-18T05:56:43.898Z,77.38
2018-06-18T05:57:49.407Z,77.29
2018-06-18T05:58:53.945Z,77.32
2018-06-18T05:59:58.476Z,77.48
2018-06-18T06:01:03.605Z,77.60
2018-06-18T06:02:08.173Z,77.72
2018-06-18T06:03:12.860Z,77.84
2018-06-18T06:04:18.124Z,77.51
2018-06-18T06:05:22.685Z,77.66
2018-06-18T06:06:27.210Z,78.20
2018-06-18T06:07:31.819Z,77.92
2018-06-18T06:08:36.380Z,77.94
2018-06-18T06:09:41.548Z,78.10
2018-06-18T06:10:46.104Z,78.14
2018-06-18T06:11:51.375Z,78.12
2018-06-18T06:12:56.028Z,77.97
2018-06-18T06:14:02.530Z,78.29
2018-06-18T06:15:07.641Z,77.67
2018-06-18T06:16:12.343Z,77.89
2018-06-18T06:17:16.853Z,78.09
2018-06-18T06:18:21.372Z,77.97
2018-06-18T06:19:25.925Z,77.81
2018-06-18T06:20:30.468Z,77.57
2018-06-18T06:21:36.389Z,77.60
2018-06-18T06:22:42.627Z,77.95
2018-06-18T06:23:48.261Z,77.54
2018-06-18T06:24:54.333Z,77.14
2018-06-18T06:25:59.840Z,77.52
2018-06-18T06:27:06.719Z,77.29
2018-06-18T06:28:11.956Z,77.31
2018-06-18T06:29:16.554Z,77.16
2018-06-18T06:30:26.148Z,77.05
2018-06-18T06:31:31.021Z,77.29
2018-06-18T06:32:35.614Z,76.81
2018-06-18T06:33:40.711Z,76.97
2018-06-18T06:34:47.295Z,77.06
2018-06-18T06:35:52.051Z,76.91
2018-06-18T06:36:56.564Z,77.17
2018-06-18T06:38:01.899Z,76.95
2018-06-18T06:39:08.805Z,76.59
2018-06-18T06:40:14.017Z,76.78
2018-06-18T06:41:18.667Z,76.54
2018-06-18T06:42:23.438Z,76.32
2018-06-18T06:43:28.037Z,76.14
2018-06-18T06:44:32.611Z,76.24
2018-06-18T06:45:37.233Z,76.37
2018-06-18T06:46:43.574Z,76.12
2018-06-18T06:47:49.151Z,75.95
2018-06-18T06:48:56.861Z,76.02
2018-06-18T06:50:01.521Z,75.93
2018-06-18T06:51:07.060Z,75.79
2018-06-18T06:52:11.816Z,75.75
2018-06-18T06:53:16.851Z,75.72
2018-06-18T06:54:21.384Z,75.57
2018-06-18T06:55:25.976Z,75.75
2018-06-18T06:56:30.519Z,75.65
2018-06-18T06:57:35.059Z,75.64
2018-06-18T06:58:39.670Z,75.41
2018-06-18T06:59:44.689Z,75.46
2018-06-18T07:00:50.450Z,75.14
2018-06-18T07:01:55.041Z,74.87
2018-06-18T07:02:59.595Z,74.67
2018-06-18T07:04:04.154Z,74.91
2018-06-18T07:05:08.693Z,74.71
2018-06-18T07:06:13.715Z,74.80
2018-06-18T07:07:18.310Z,74.32
2018-06-18T07:08:23.776Z,74.23
2018-06-18T07:09:30.043Z,74.58
2018-06-18T07:10:35.294Z,74.23
2018-06-18T07:11:41.154Z,74.43
2018-06-18T07:12:46.640Z,74.10
2018-06-18T07:13:51.347Z,74.03
2018-06-18T07:14:55.941Z,73.89
2018-06-18T07:16:01.757Z,74.11
2018-06-18T07:17:07.682Z,73.48
2018-06-18T07:18:13.324Z,73.08
2018-06-18T07:19:18.650Z,73.12
2018-06-18T07:20:24.117Z,73.10
2018-06-18T07:21:30.812Z,72.50
2018-06-18T07:22:35.786Z,72.86
2018-06-18T07:23:41.300Z,72.78
2018-06-18T07:24:45.797Z,72.36
2018-06-18T07:25:50.901Z,71.96
2018-06-18T07:26:55.484Z,72.14
2018-06-18T07:28:00.040Z,71.93
2018-06-18T07:29:04.567Z,71.88
2018-06-18T07:30:11.142Z,71.39
2018-06-18T07:31:16.418Z,71.53
2018-06-18T07:32:21.252Z,71.24
2018-06-18T07:33:29.950Z,71.37
2018-06-18T07:34:35.402Z,71.95
2018-06-18T07:35:39.919Z,71.35
2018-06-18T07:36:44.663Z,70.63
2018-06-18T07:37:50.409Z,69.78
2018-06-18T07:38:56.095Z,69.42
2018-06-18T07:40:00.675Z,68.72
2018-06-18T07:41:05.250Z,68.57
2018-06-18T07:42:10.796Z,69.53
2018-06-18T07:43:16.310Z,68.68
2018-06-18T07:44:21.012Z,69.53
2018-06-18T07:45:25.522Z,69.50
2018-06-18T07:46:30.544Z,68.67
2018-06-18T07:47:35.387Z,68.99
2018-06-18T07:48:39.965Z,69.48
2018-06-18T07:49:44.554Z,68.74
2018-06-18T07:50:49.567Z,69.11
2018-06-18T07:51:54.116Z,68.42
2018-06-18T07:52:58.681Z,68.70
2018-06-18T07:54:08.191Z,68.41
2018-06-18T07:55:13.286Z,69.04
2018-06-18T07:56:19.890Z,68.51
2018-06-18T07:57:24.686Z,68.48
2018-06-18T07:58:29.227Z,68.70
2018-06-18T07:59:33.877Z,68.66
2018-06-18T08:00:38.372Z,69.38
2018-06-18T08:01:43.678Z,68.71
2018-06-18T08:02:48.282Z,68.59
2018-06-18T08:03:52.905Z,68.90
2018-06-18T08:04:57.421Z,69.39
2018-06-18T08:06:03.027Z,69.44
2018-06-18T08:07:07.606Z,69.28
2018-06-18T08:08:13.986Z,69.25
2018-06-18T08:09:20.223Z,68.90
2018-06-18T08:10:24.730Z,68.85
2018-06-18T08:11:30.900Z,68.49
2018-06-18T08:12:36.109Z,68.97
2018-06-18T08:13:41.352Z,68.58
2018-06-18T08:14:45.917Z,68.72
2018-06-18T08:15:50.900Z,68.24
2018-06-18T08:16:55.440Z,68.32
2018-06-18T08:18:00.027Z,68.30
2018-06-18T08:19:04.859Z,68.72
2018-06-18T08:20:09.519Z,68.12
2018-06-18T08:21:14.658Z,68.20
2018-06-18T08:22:19.777Z,67.39
2018-06-18T08:23:25.345Z,67.00
2018-06-18T08:24:31.707Z,66.99
2018-06-18T08:25:36.785Z,67.31
2018-06-18T08:26:41.403Z,67.43
2018-06-18T08:27:47.664Z,68.41
2018-06-18T08:28:52.759Z,68.35
2018-06-18T08:29:58.306Z,68.47
2018-06-18T08:31:03.475Z,67.92
2018-06-18T08:32:08.226Z,68.08
2018-06-18T08:33:12.889Z,68.17
2018-06-18T08:34:17.672Z,68.10
2018-06-18T08:35:25.638Z,68.73
2018-06-18T08:36:30.299Z,68.49
2018-06-18T08:37:34.941Z,68.61
2018-06-18T08:38:39.575Z,69.11
2018-06-18T08:39:45.098Z,68.23
2018-06-18T08:40:50.356Z,68.87
2018-06-18T08:41:56.325Z,68.68
2018-06-18T08:43:01.018Z,68.74
2018-06-18T08:44:06.186Z,69.04
2018-06-18T08:45:10.883Z,69.45
2018-06-18T08:46:15.506Z,69.75
2018-06-18T08:47:20.264Z,70.38
2018-06-18T08:48:30.488Z,70.03
2018-06-18T08:49:39.222Z,69.88
2018-06-18T08:50:50.861Z,70.17
2018-06-18T08:52:01.414Z,69.38
2018-06-18T08:53:12.759Z,68.66
2018-06-18T08:54:25.565Z,69.24
2018-06-18T08:55:35.041Z,68.84
2018-06-18T08:56:44.374Z,68.91
2018-06-18T08:57:54.017Z,68.71
2018-06-18T08:59:03.531Z,69.51
2018-06-18T09:00:14.251Z,69.24
2018-06-18T09:01:23.140Z,68.83
2018-06-18T09:02:32.018Z,68.61
2018-06-18T09:03:41.499Z,68.41
2018-06-18T09:04:50.169Z,68.16
2018-06-18T09:05:55.021Z,69.04
2018-06-18T09:07:03.833Z,69.36
2018-06-18T09:08:17.399Z,69.75
2018-06-18T09:09:22.063Z,69.71
2018-06-18T09:10:33.659Z,69.90
2018-06-18T09:11:39.834Z,69.78
2018-06-18T09:12:44.384Z,69.27
2018-06-18T09:13:52.493Z,69.06
2018-06-18T09:14:57.170Z,69.24
2018-06-18T09:16:03.440Z,69.38
2018-06-18T09:17:08.029Z,69.17
2018-06-18T09:18:13.714Z,68.92
2018-06-18T09:19:19.477Z,70.03
2018-06-18T09:20:24.748Z,69.33
2018-06-18T09:21:29.284Z,69.94
2018-06-18T09:22:33.948Z,70.17
2018-06-18T09:23:38.636Z,70.20
2018-06-18T09:24:44.364Z,69.55
2018-06-18T09:25:54.216Z,69.98
2018-06-18T09:27:03.728Z,69.55
2018-06-18T09:28:09.461Z,69.37
2018-06-18T09:29:14.095Z,70.28
2018-06-18T09:30:18.709Z,70.34
2018-06-18T09:31:23.402Z,70.61
2018-06-18T09:32:29.395Z,70.67
2018-06-18T09:33:33.948Z,70.92
2018-06-18T09:34:38.647Z,70.94
2018-06-18T09:35:43.429Z,70.91
2018-06-18T09:36:48.139Z,70.71
2018-06-18T09:37:53.429Z,70.32
2018-06-18T09:38:58.537Z,70.56
2018-06-18T09:40:04.381Z,70.67
2018-06-18T09:41:09.045Z,70.24
2018-06-18T09:42:13.758Z,69.99
2018-06-18T09:43:19.629Z,70.01
2018-06-18T09:44:24.343Z,69.46
2018-06-18T09:45:29.458Z,69.45
2018-06-18T09:46:35.212Z,69.82
2018-06-18T09:47:39.864Z,70.11
2018-06-18T09:48:49.391Z,70.14
2018-06-18T09:49:58.997Z,70.35
2018-06-18T09:51:10.647Z,71.26
2018-06-18T09:52:20.215Z,70.87
2018-06-18T09:53:31.069Z,71.36
2018-06-18T09:54:41.094Z,71.36
2018-06-18T09:55:51.541Z,71.08
2018-06-18T09:57:02.713Z,71.35
2018-06-18T09:58:16.611Z,71.68
2018-06-18T09:59:27.811Z,71.91
2018-06-18T10:00:43.079Z,72.23
2018-06-18T10:01:48.243Z,71.65
2018-06-18T10:02:53.731Z,71.80
2018-06-18T10:04:00.874Z,71.30
2018-06-18T10:05:05.462Z,71.23
2018-06-18T10:06:12.272Z,71.31
2018-06-18T10:07:17.867Z,71.69
2018-06-18T10:08:23.370Z,71.72
2018-06-18T10:09:27.993Z,71.22
2018-06-18T10:10:34.110Z,70.39
2018-06-18T10:11:38.877Z,70.56
2018-06-18T10:12:44.772Z,71.06
2018-06-18T10:13:49.517Z,71.21
2018-06-18T10:14:54.237Z,70.46
2018-06-18T10:15:58.927Z,70.08
2018-06-18T10:17:04.552Z,70.51
2018-06-18T10:18:10.935Z,69.77
2018-06-18T10:19:15.769Z,69.22
2018-06-18T10:20:20.468Z,69.48
2018-06-18T10:21:25.524Z,69.85
2018-06-18T10:22:30.222Z,70.02
2018-06-18T10:23:36.057Z,69.68
2018-06-18T10:24:42.543Z,69.45
2018-06-18T10:25:48.259Z,69.53
2018-06-18T10:26:54.178Z,69.35
2018-06-18T10:27:59.783Z,69.96
2018-06-18T10:29:05.124Z,69.75
2018-06-18T10:30:10.815Z,69.97
2018-06-18T10:31:18.120Z,68.84
2018-06-18T10:32:32.320Z,68.50
2018-06-18T10:33:45.989Z,68.81
2018-06-18T10:34:56.684Z,68.92
2018-06-18T10:36:06.235Z,68.63
2018-06-18T10:37:15.811Z,68.16
2018-06-18T10:38:25.959Z,68.98
2018-06-18T10:39:37.388Z,68.48
2018-06-18T10:40:48.709Z,68.53
2018-06-18T10:44:07.298Z,68.83
2018-06-18T10:45:11.877Z,68.04
2018-06-18T10:46:18.560Z,67.99
2018-06-18T10:47:23.537Z,67.86
2018-06-18T10:48:29.056Z,67.79
2018-06-18T10:49:33.691Z,67.40
2018-06-18T10:50:40.774Z,67.78
2018-06-18T10:51:46.673Z,67.48
2018-06-18T10:52:51.366Z,67.53
2018-06-18T10:53:56.337Z,67.11
2018-06-18T10:55:01.858Z,67.24
2018-06-18T10:56:07.465Z,67.56
2018-06-18T10:57:15.067Z,67.29
2018-06-18T10:58:21.667Z,67.21
2018-06-18T10:59:28.236Z,67.57
2018-06-18T11:00:42.674Z,68.11
2018-06-18T11:01:49.270Z,68.20
2018-06-18T11:02:59.291Z,68.19
2018-06-18T11:04:05.795Z,68.24
2018-06-18T11:05:13.719Z,67.71
2018-06-18T11:06:24.625Z,67.66
2018-06-18T11:07:35.274Z,67.02
2018-06-18T11:08:45.555Z,67.04
2018-06-18T11:09:53.393Z,67.78
2018-06-18T11:11:00.038Z,67.03
2018-06-18T11:12:07.400Z,67.16
2018-06-18T11:13:12.080Z,67.39
2018-06-18T11:14:16.789Z,66.78
2018-06-18T11:15:24.755Z,66.48
2018-06-18T11:16:31.590Z,66.64
2018-06-18T11:17:41.561Z,66.33
2018-06-18T11:18:51.661Z,65.95
2018-06-18T11:20:01.328Z,66.09
2018-06-18T11:21:11.554Z,66.31
2018-06-18T11:22:18.442Z,65.95
2018-06-18T11:23:28.501Z,65.90
2018-06-18T11:24:39.624Z,65.58
2018-06-18T11:25:50.460Z,65.81
2018-06-18T11:26:55.973Z,66.40
2018-06-18T11:28:02.409Z,66.27
2018-06-18T11:29:09.625Z,65.55
2018-06-18T11:30:18.280Z,65.22
2018-06-18T11:31:25.501Z,65.59
2018-06-18T11:32:30.824Z,65.00
2018-06-18T11:33:35.859Z,65.25
2018-06-18T11:34:43.329Z,64.29
2018-06-18T11:35:50.061Z,64.78
2018-06-18T11:36:56.738Z,64.58
2018-06-18T11:38:02.256Z,64.35
2018-06-18T11:39:10.208Z,64.70
2018-06-18T11:40:17.825Z,64.96
2018-06-18T11:41:22.537Z,64.28
2018-06-18T11:42:29.320Z,64.75
2018-06-18T11:43:35.376Z,64.11
2018-06-18T11:44:40.090Z,64.72
2018-06-18T11:45:44.668Z,64.50
2018-06-18T11:46:51.031Z,64.53
2018-06-18T11:48:00.873Z,64.69
2018-06-18T11:49:11.246Z,64.78
2018-06-18T11:50:19.790Z,65.62
2018-06-18T11:51:25.266Z,64.80
2018-06-18T11:52:32.835Z,64.77
2018-06-18T11:53:37.788Z,65.00
2018-06-18T11:54:42.479Z,64.78
2018-06-18T11:55:49.099Z,65.07
2018-06-18T11:56:53.837Z,64.66
2018-06-18T11:57:59.195Z,65.17
2018-06-18T11:59:10.224Z,65.73
2018-06-18T12:00:21.763Z,65.74
2018-06-18T12:01:35.796Z,66.66
2018-06-18T12:02:46.197Z,66.36
2018-06-18T12:03:58.246Z,66.35
2018-06-18T12:05:10.926Z,66.99
2018-06-18T12:06:20.571Z,67.20
2018-06-18T12:07:33.776Z,67.42
2018-06-18T12:08:56.448Z,66.70
2018-06-18T12:10:05.363Z,66.94
2018-06-18T12:11:09.992Z,66.17
2018-06-18T12:12:16.019Z,65.99
2018-06-18T12:13:23.821Z,66.15
2018-06-18T12:14:29.294Z,66.49
2018-06-18T12:15:33.980Z,65.71
2018-06-18T12:16:39.117Z,65.99
2018-06-18T12:17:44.500Z,66.17
2018-06-18T12:18:50.609Z,66.26
2018-06-18T12:19:56.355Z,65.68
2018-06-18T12:21:02.506Z,65.77
2018-06-18T12:22:09.187Z,66.54
2018-06-18T12:23:13.867Z,66.56
2018-06-18T12:24:18.967Z,66.65
2018-06-18T12:25:24.280Z,65.96
2018-06-18T12:26:32.491Z,66.14
2018-06-18T12:27:37.169Z,66.33
2018-06-18T12:28:42.918Z,65.85
2018-06-18T12:29:48.017Z,65.75
2018-06-18T12:30:53.621Z,65.55
2018-06-18T12:31:59.889Z,65.18
2018-06-18T12:33:05.757Z,65.73
2018-06-18T12:34:12.803Z,64.74
2018-06-18T12:35:18.293Z,65.02
2018-06-18T12:36:23.162Z,65.06
2018-06-18T12:37:33.980Z,64.82
2018-06-18T12:38:40.882Z,64.41
2018-06-18T12:39:50.616Z,64.83
2018-06-18T12:40:56.425Z,65.08
2018-06-18T12:42:02.693Z,65.72
2018-06-18T12:43:09.191Z,65.86
2018-06-18T12:44:16.799Z,65.56
2018-06-18T12:45:27.854Z,65.23
2018-06-18T12:48:43.766Z,65.19
2018-06-18T12:49:53.429Z,64.70
2018-06-18T12:51:04.042Z,64.54
2018-06-18T12:54:16.469Z,64.48
2018-06-18T12:55:26.430Z,64.38
2018-06-18T12:56:37.521Z,64.62
2018-06-18T12:57:42.552Z,64.71
2018-06-18T12:59:00.689Z,64.65
2018-06-18T13:00:05.371Z,64.73
2018-06-18T13:01:11.493Z,64.57
2018-06-18T13:02:18.946Z,64.28
2018-06-18T13:03:23.544Z,63.94
2018-06-18T13:04:28.061Z,64.24
2018-06-18T13:05:32.726Z,63.90
2018-06-18T13:06:38.365Z,63.64
2018-06-18T13:07:44.442Z,63.88
2018-06-18T13:08:49.446Z,64.62
2018-06-18T13:09:54.901Z,64.23
2018-06-18T13:11:00.844Z,64.67
2018-06-18T13:12:06.248Z,64.20
2018-06-18T13:13:10.785Z,64.64
2018-06-18T13:14:17.168Z,64.71
2018-06-18T13:15:23.304Z,64.45
2018-06-18T13:16:27.949Z,64.97
2018-06-18T13:17:32.519Z,65.05
2018-06-18T13:18:37.067Z,64.88
2018-06-18T13:19:42.545Z,65.26
2018-06-18T13:20:49.180Z,64.60
2018-06-18T13:21:54.169Z,64.61
2018-06-18T13:22:59.810Z,64.66
2018-06-18T13:24:05.391Z,64.69
2018-06-18T13:25:10.628Z,64.36
2018-06-18T13:26:15.227Z,64.51
2018-06-18T13:27:24.264Z,64.36
2018-06-18T13:28:29.490Z,63.97
2018-06-18T13:29:34.791Z,64.23
2018-06-18T13:30:40.275Z,63.83
2018-06-18T13:31:46.500Z,63.55
2018-06-18T13:32:51.459Z,63.65
2018-06-18T13:33:56.714Z,63.83
2018-06-18T13:35:05.540Z,63.89
2018-06-18T13:36:18.313Z,63.94
2018-06-18T13:37:27.850Z,63.73
2018-06-18T13:38:38.384Z,63.71
2018-06-18T13:39:48.614Z,63.65
2018-06-18T13:41:00.211Z,63.46
2018-06-18T13:42:10.161Z,63.84
2018-06-18T13:43:19.757Z,63.73
2018-06-18T13:44:30.398Z,63.27
2018-06-18T13:45:36.161Z,63.53
2018-06-18T13:46:45.850Z,63.81
2018-06-18T13:47:56.399Z,63.65
2018-06-18T13:49:02.000Z,63.76
2018-06-18T13:50:08.879Z,63.53
2018-06-18T13:51:18.300Z,63.44
2018-06-18T13:52:24.152Z,63.21
2018-06-18T13:53:31.512Z,63.66
2018-06-18T13:54:41.065Z,63.77
2018-06-18T13:55:56.654Z,63.39
2018-06-18T13:57:02.715Z,63.74
2018-06-18T13:58:07.937Z,63.81
2018-06-18T13:59:12.680Z,64.08
2018-06-18T14:00:22.126Z,63.74
2018-06-18T14:01:29.024Z,64.12
2018-06-18T14:02:34.245Z,63.70
2018-06-18T14:03:39.997Z,63.68
2018-06-18T14:04:44.954Z,63.41
2018-06-18T14:05:49.517Z,63.30
2018-06-18T14:06:54.422Z,63.36
2018-06-18T14:08:00.330Z,63.02
2018-06-18T14:09:14.267Z,62.76
2018-06-18T14:10:20.241Z,62.62
2018-06-18T14:11:27.796Z,62.35
2018-06-18T14:12:33.401Z,62.45
2018-06-18T14:13:37.999Z,62.53
2018-06-18T14:14:45.429Z,62.53
2018-06-18T14:15:50.005Z,63.11
2018-06-18T14:16:56.047Z,62.81
2018-06-18T14:18:00.545Z,62.68
2018-06-18T14:19:11.098Z,62.55
2018-06-18T14:20:20.631Z,62.80